Time;durP1;ratioP1;P1;durP2;ratioP2;P2;SDS_P1;SDS_P2;PMS_P1;PMS_P2;Temp;Humidity;BMP_temperature;BMP_pressure;BME280_temperature;BME280_humidity;BME280_pressure;Samples;Min_cycle;Max_cycle;Signal;HPM_P1;HPM_P2
2023/02/20 00:01:53;;;;;;;7.88;2.33;;;;;;;7.77;100.00;99907.84;4912607;29;20084;-74
2023/02/20 00:04:18;;;;;;;9.32;2.40;;;;;;;7.77;100.00;99907.84;4905481;28;20017;-74
2023/02/20 00:06:44;;;;;;;4.50;2.05;;;;;;;7.64;100.00;99892.09;4917636;29;20051;-74
2023/02/20 00:09:09;;;;;;;6.53;2.85;;;;;;;7.55;100.00;99882.28;4971872;28;20031;-74
2023/02/20 00:11:35;;;;;;;6.75;2.88;;;;;;;7.62;100.00;99894.13;4936007;28;20107;-74
2023/02/20 00:14:00;;;;;;;9.05;3.35;;;;;;;7.54;100.00;99879.72;4964636;28;20080;-74
2023/02/20 00:16:25;;;;;;;11.77;2.92;;;;;;;7.47;100.00;99876.84;4922145;28;20653;-74
2023/02/20 00:18:51;;;;;;;7.55;2.70;;;;;;;7.42;100.00;99881.84;4925255;28;20407;-74
2023/02/20 00:21:16;;;;;;;7.80;2.42;;;;;;;7.54;100.00;99891.34;4916790;29;20496;-74
2023/02/20 00:23:41;;;;;;;10.10;3.47;;;;;;;7.47;100.00;99891.16;4910206;28;20475;-74
2023/02/20 00:26:11;;;;;;;9.93;2.92;;;;;;;7.50;100.00;99890.00;4921305;28;20023;-74
2023/02/20 00:28:38;;;;;;;6.30;2.10;;;;;;;7.50;100.00;99895.38;4920915;29;20041;-74
2023/02/20 00:31:06;;;;;;;13.88;2.70;;;;;;;7.50;100.00;99908.84;4910596;29;20024;-74
2023/02/20 00:33:31;;;;;;;4.75;2.42;;;;;;;7.41;100.00;99886.41;4920905;28;20086;-73
2023/02/20 00:35:56;;;;;;;17.92;3.20;;;;;;;7.52;100.00;99906.84;4912644;28;20107;-74
2023/02/20 00:38:21;;;;;;;9.15;2.83;;;;;;;7.46;100.00;99900.22;4931642;29;20028;-74
2023/02/20 00:40:47;;;;;;;9.38;2.53;;;;;;;7.44;100.00;99895.97;4911200;28;20091;-74
2023/02/20 00:43:12;;;;;;;4.30;2.38;;;;;;;7.48;100.00;99918.91;4910234;29;20602;-74
2023/02/20 00:45:37;;;;;;;8.07;2.80;;;;;;;7.27;100.00;99889.63;4915604;29;20028;-74
2023/02/20 00:48:03;;;;;;;8.43;2.88;;;;;;;7.32;100.00;99910.72;4916344;28;20038;-74
2023/02/20 00:50:28;;;;;;;13.85;3.10;;;;;;;7.22;100.00;99902.72;4909258;29;20031;-74
2023/02/20 00:52:54;;;;;;;10.25;2.90;;;;;;;7.13;100.00;99912.56;4905509;29;20036;-74
2023/02/20 00:55:19;;;;;;;8.80;3.25;;;;;;;6.98;100.00;99911.41;4930594;29;20131;-74
2023/02/20 00:57:44;;;;;;;8.38;2.70;;;;;;;6.93;100.00;99902.94;4941809;29;20039;-74
2023/02/20 01:00:19;;;;;;;11.38;3.25;;;;;;;6.99;100.00;99918.47;4911284;29;20048;-74
2023/02/20 01:02:45;;;;;;;6.07;2.63;;;;;;;6.82;100.00;99903.16;4919375;28;20094;-74
2023/02/20 01:05:10;;;;;;;8.13;2.55;;;;;;;6.85;100.00;99905.56;4910773;29;20107;-74
2023/02/20 01:07:35;;;;;;;8.20;3.13;;;;;;;6.67;100.00;99892.06;4915462;29;20081;-74
2023/02/20 01:10:01;;;;;;;7.50;2.70;;;;;;;6.65;100.00;99896.75;4913382;29;20032;-74
2023/02/20 01:12:26;;;;;;;8.18;2.85;;;;;;;6.53;100.00;99902.34;4921638;28;20027;-74
2023/02/20 01:14:51;;;;;;;6.43;2.72;;;;;;;6.50;100.00;99894.59;4922980;29;20704;-74
2023/02/20 01:17:17;;;;;;;10.23;2.88;;;;;;;6.37;100.00;99886.03;4905097;29;20031;-74
2023/02/20 01:19:43;;;;;;;6.93;2.60;;;;;;;6.41;100.00;99894.63;4926084;29;20059;-74
2023/02/20 01:22:08;;;;;;;7.35;2.95;;;;;;;6.36;100.00;99898.59;4937611;28;20032;-74
2023/02/20 01:24:34;;;;;;;8.00;3.00;;;;;;;6.26;100.00;99892.47;4913439;29;20114;-74
2023/02/20 01:26:59;;;;;;;8.57;3.13;;;;;;;6.31;100.00;99898.22;4914139;29;20528;-74
2023/02/20 01:29:24;;;;;;;13.93;3.17;;;;;;;6.24;100.00;99888.22;4914970;29;20074;-75
2023/02/20 01:31:50;;;;;;;9.27;2.92;;;;;;;6.16;100.00;99897.03;4912170;29;20032;-74
2023/02/20 01:34:17;;;;;;;7.57;2.60;;;;;;;6.09;100.00;99893.22;4915676;29;20386;-74
2023/02/20 01:36:50;;;;;;;11.82;3.20;;;;;;;6.27;100.00;99912.94;4915801;29;20028;-74
2023/02/20 01:39:21;;;;;;;8.88;2.75;;;;;;;6.24;100.00;99901.66;4925319;29;20029;-74
2023/02/20 01:41:49;;;;;;;8.88;3.00;;;;;;;5.94;100.00;99884.78;4915900;29;20024;-75
2023/02/20 01:44:24;;;;;;;10.82;3.28;;;;;;;6.12;100.00;99903.69;4911240;28;20031;-74
2023/02/20 01:46:56;;;;;;;5.85;2.63;;;;;;;6.02;100.00;99897.50;4908084;29;20489;-74
2023/02/20 01:49:28;;;;;;;11.25;2.72;;;;;;;6.09;100.00;99918.25;4902926;29;20028;-74
2023/02/20 01:52:01;;;;;;;7.93;2.83;;;;;;;5.94;100.00;99906.28;4913182;29;20060;-74
2023/02/20 01:54:28;;;;;;;11.07;3.22;;;;;;;5.86;100.00;99911.50;4925148;29;20055;-74
2023/02/20 01:56:58;;;;;;;10.32;3.17;;;;;;;5.77;100.00;99898.97;4914683;28;20044;-74
2023/02/20 01:59:26;;;;;;;10.18;3.45;;;;;;;5.70;100.00;99902.22;4912270;29;20497;-74
2023/02/20 02:01:51;;;;;;;8.90;3.15;;;;;;;5.55;100.00;99900.97;4926482;29;20040;-74
2023/02/20 02:04:17;;;;;;;8.20;3.42;;;;;;;5.45;100.00;99884.06;4934560;29;20027;-74
2023/02/20 02:06:48;;;;;;;7.15;2.72;;;;;;;5.47;100.00;99893.63;4960030;28;20032;-74
2023/02/20 02:09:22;;;;;;;13.40;3.80;;;;;;;5.43;100.00;99902.16;4907531;29;20024;-74
2023/02/20 02:11:48;;;;;;;9.43;3.22;;;;;;;5.39;100.00;99898.88;4911862;28;20040;-74
2023/02/20 02:14:13;;;;;;;9.63;3.67;;;;;;;5.31;100.00;99888.03;4916187;29;20509;-74
2023/02/20 02:17:05;;;;;;;15.10;3.28;;;;;;;5.30;100.00;99897.06;4916873;29;20104;-74
2023/02/20 02:20:08;;;;;;;8.63;3.35;;;;;;;5.38;100.00;99899.03;4923948;28;20029;-74
2023/02/20 02:22:58;;;;;;;20.20;3.17;;;;;;;5.33;100.00;99899.47;4895161;29;20032;-74
2023/02/20 02:25:32;;;;;;;13.73;3.63;;;;;;;5.29;100.00;99898.03;4901912;29;20095;-74
2023/02/20 02:28:43;;;;;;;7.45;3.67;;;;;;;5.31;100.00;99895.22;4906777;29;20036;-74
2023/02/20 02:31:26;;;;;;;11.13;3.78;;;;;;;5.25;100.00;99904.69;4913148;29;20032;-75
2023/02/20 02:34:37;;;;;;;9.93;3.30;;;;;;;5.21;100.00;99897.91;4905743;29;20108;-74
2023/02/20 02:37:12;;;;;;;7.78;3.22;;;;;;;5.17;100.00;99912.63;4895565;29;20079;-74
2023/02/20 02:40:05;;;;;;;8.38;3.05;;;;;;;5.13;100.00;99900.47;4913326;29;20130;-74
2023/02/20 02:42:43;;;;;;;11.82;4.25;;;;;;;5.06;100.00;99913.59;4915637;28;20038;-74
2023/02/20 02:45:12;;;;;;;6.93;3.30;;;;;;;4.96;100.00;99910.06;4908608;29;20028;-74
2023/02/20 02:48:18;;;;;;;10.25;3.20;;;;;;;4.85;100.00;99903.00;4923236;28;20072;-74
2023/02/20 02:50:47;;;;;;;9.93;4.15;;;;;;;4.82;100.00;99897.91;4910518;29;20028;-74
2023/02/20 02:53:14;;;;;;;11.10;4.67;;;;;;;4.77;100.00;99905.53;4929421;29;20482;-74
2023/02/20 02:55:39;;;;;;;10.95;3.88;;;;;;;4.84;100.00;99898.59;4926279;28;20295;-76
2023/02/20 02:58:05;;;;;;;10.88;4.07;;;;;;;4.75;100.00;99886.06;4910469;28;20024;-75
2023/02/20 03:00:49;;;;;;;9.80;3.28;;;;;;;4.80;100.00;99900.72;4907209;29;20032;-75
2023/02/20 03:03:20;;;;;;;9.73;3.83;;;;;;;4.66;100.00;99878.84;4906817;29;20111;-74
2023/02/20 03:05:56;;;;;;;8.35;3.58;;;;;;;4.56;100.00;99890.41;4918928;28;20064;-75
2023/02/20 03:08:36;;;;;;;15.20;4.18;;;;;;;4.49;100.00;99886.56;4922589;28;20550;-75
2023/02/20 03:11:13;;;;;;;10.57;3.70;;;;;;;4.55;100.00;99899.41;4913347;29;20082;-75
2023/02/20 03:16:34;;;;;;;7.70;3.08;;;;;;;4.56;100.00;99906.47;4907808;29;20078;-75
2023/02/20 03:19:02;;;;;;;9.25;3.47;;;;;;;4.62;100.00;99880.97;4903832;29;20028;-74
2023/02/20 03:21:31;;;;;;;11.75;3.53;;;;;;;4.92;100.00;99893.38;4894138;29;20423;-74
2023/02/20 03:24:00;;;;;;;8.10;3.90;;;;;;;4.99;100.00;99886.50;4909007;29;20032;-75
2023/02/20 03:26:28;;;;;;;;;;;;;;;5.12;100.00;99898.78;4901410;29;20503;-75
2023/02/20 03:29:00;;;;;;;9.05;4.10;;;;;;;5.15;100.00;99895.81;4915228;29;19922;-75
2023/02/20 03:31:32;;;;;;;8.27;3.90;;;;;;;5.04;100.00;99878.88;4905409;29;20036;-74
2023/02/20 03:45:28;;;;;;;10.90;4.10;;;;;;;4.82;100.00;99877.31;4908313;29;20043;-75
2023/02/20 03:47:58;;;;;;;14.93;3.85;;;;;;;4.89;100.00;99888.31;4933749;28;20033;-75
2023/02/20 03:50:24;;;;;;;7.78;3.80;;;;;;;4.88;100.00;99875.91;4912128;29;20028;-75
2023/02/20 03:52:50;;;;;;;9.45;4.00;;;;;;;5.02;100.00;99882.69;4921747;29;20075;-75
2023/02/20 03:55:15;;;;;;;13.60;4.00;;;;;;;5.16;100.00;99893.00;4913706;29;20024;-74
2023/02/20 03:57:48;;;;;;;7.85;4.07;;;;;;;5.11;100.00;99876.47;4912369;28;20054;-75
2023/02/20 04:00:18;;;;;;;11.45;4.53;;;;;;;5.22;100.00;99878.16;4904396;28;20025;-74
2023/02/20 04:02:46;;;;;;;9.68;4.13;;;;;;;5.23;100.00;99893.25;4912445;29;20032;-75
2023/02/20 04:05:19;;;;;;;8.88;4.68;;;;;;;5.29;100.00;99876.56;4915518;29;20032;-75
2023/02/20 04:07:54;;;;;;;12.07;4.03;;;;;;;5.19;100.00;99873.09;4923541;29;20065;-74
2023/02/20 04:10:24;;;;;;;7.30;3.97;;;;;;;5.15;100.00;99888.59;4933657;28;20045;-75
2023/02/20 04:12:52;;;;;;;9.90;4.32;;;;;;;4.97;100.00;99869.69;4965018;28;20963;-75
2023/02/20 04:15:19;;;;;;;11.02;3.00;;;;;;;5.00;100.00;99866.75;4908717;29;20071;-75
2023/02/20 04:17:58;;;;;;;10.25;3.40;;;;;;;4.90;100.00;99863.22;4916419;28;20039;-75
2023/02/20 04:20:23;;;;;;;10.70;3.97;;;;;;;4.80;100.00;99865.03;4935190;28;20018;-74
2023/02/20 04:22:55;;;;;;;13.40;4.40;;;;;;;4.89;100.00;99869.53;4930895;28;20094;-74
2023/02/20 04:25:34;;;;;;;12.93;4.18;;;;;;;4.73;100.00;99855.84;4932730;29;20111;-74
2023/02/20 04:28:00;;;;;;;7.53;3.75;;;;;;;4.69;100.00;99865.16;4930885;28;20031;-74
2023/02/20 04:30:26;;;;;;;13.18;3.97;;;;;;;4.47;100.00;99844.81;4916273;28;20103;-74
2023/02/20 04:32:51;;;;;;;8.18;3.75;;;;;;;4.60;100.00;99872.19;4917454;29;20063;-75
2023/02/20 04:35:18;;;;;;;12.35;3.63;;;;;;;4.61;100.00;99861.34;4917104;29;20035;-74
2023/02/20 04:37:44;;;;;;;9.10;3.78;;;;;;;4.63;100.00;99888.00;4914185;29;20028;-74
2023/02/20 04:40:12;;;;;;;12.75;4.05;;;;;;;4.56;100.00;99886.88;4924722;28;20083;-75
2023/02/20 04:42:37;;;;;;;14.40;5.22;;;;;;;4.44;100.00;99882.63;4964533;28;20047;-75
2023/02/20 04:45:03;;;;;;;9.95;3.40;;;;;;;4.41;100.00;99883.75;4924027;28;20037;-75
2023/02/20 04:47:29;;;;;;;8.00;3.63;;;;;;;4.32;100.00;99876.50;4928274;28;20020;-75
2023/02/20 04:49:54;;;;;;;5.50;3.20;;;;;;;4.42;100.00;99885.41;4927462;28;20039;-76
2023/02/20 04:52:20;;;;;;;8.88;3.72;;;;;;;4.37;100.00;99872.44;4933245;28;20025;-76
2023/02/20 04:54:46;;;;;;;15.55;4.22;;;;;;;4.40;100.00;99892.75;4924590;28;20045;-75
2023/02/20 04:57:11;;;;;;;10.02;4.10;;;;;;;4.51;100.00;99898.00;4914605;28;20021;-77
2023/02/20 04:59:36;;;;;;;9.30;3.83;;;;;;;4.60;100.00;99889.13;4922083;28;20040;-77
2023/02/20 05:02:02;;;;;;;6.13;3.50;;;;;;;4.63;100.00;99882.63;4906115;29;20058;-76
2023/02/20 05:04:27;;;;;;;11.90;3.97;;;;;;;4.61;100.00;99876.56;4900542;29;20440;-76
2023/02/20 05:06:54;;;;;;;12.55;4.25;;;;;;;4.64;100.00;99875.44;4914075;29;20032;-75
2023/02/20 05:09:20;;;;;;;9.90;3.90;;;;;;;4.52;100.00;99880.09;4931468;28;20030;-76
2023/02/20 05:11:46;;;;;;;13.13;4.05;;;;;;;4.47;100.00;99882.34;4944184;28;20032;-75
2023/02/20 05:14:11;;;;;;;13.18;4.95;;;;;;;4.25;100.00;99872.69;4912310;29;20471;-75
2023/02/20 05:16:38;;;;;;;9.93;4.93;;;;;;;4.16;100.00;99880.53;4915832;29;20066;-75
2023/02/20 05:19:04;;;;;;;15.10;5.03;;;;;;;4.00;100.00;99872.19;4911822;28;20115;-74
2023/02/20 05:24:13;;;;;;;9.55;4.80;;;;;;;3.93;100.00;99887.09;4949248;28;20054;-76
2023/02/20 05:26:39;;;;;;;13.57;5.25;;;;;;;3.82;100.00;99884.50;4908593;28;20486;-74
2023/02/20 05:29:05;;;;;;;14.02;6.50;;;;;;;3.89;100.00;99893.69;4917321;28;20048;-75
2023/02/20 05:31:31;;;;;;;18.40;7.28;;;;;;;3.90;100.00;99890.03;4909476;29;20090;-75
2023/02/20 05:33:56;;;;;;;14.50;6.82;;;;;;;4.05;100.00;99899.41;4914239;29;20024;-76
2023/02/20 05:36:21;;;;;;;13.90;5.82;;;;;;;4.02;100.00;99896.16;4908196;28;20040;-74
2023/02/20 05:38:48;;;;;;;11.90;5.38;;;;;;;4.17;100.00;99906.38;4904857;28;20047;-76
2023/02/20 05:41:16;;;;;;;14.15;5.57;;;;;;;4.16;100.00;99901.97;4906018;28;20115;-79
2023/02/20 05:43:42;;;;;;;13.40;4.80;;;;;;;4.24;100.00;99906.66;4911365;29;20024;-75
2023/02/20 05:46:07;;;;;;;10.70;5.53;;;;;;;4.26;100.00;99906.53;4912235;28;20038;-75
2023/02/20 05:48:33;;;;;;;8.40;5.10;;;;;;;4.11;100.00;99861.38;4910469;29;20064;-75
2023/02/20 05:50:58;;;;;;;9.57;5.13;;;;;;;4.24;100.00;99882.53;4897799;29;20024;-75
2023/02/20 05:53:27;;;;;;;16.45;5.30;;;;;;;4.11;100.00;99861.38;4914542;28;20478;-75
2023/02/20 05:55:52;;;;;;;12.38;5.63;;;;;;;4.27;100.00;99890.34;4908025;28;20032;-77
2023/02/20 05:58:18;;;;;;;11.82;5.68;;;;;;;4.17;100.00;99868.88;4908393;29;20488;-77
2023/02/20 06:00:43;;;;;;;13.88;4.95;;;;;;;4.20;100.00;99883.81;4934258;28;20030;-77
2023/02/20 06:03:11;;;;;;;14.95;5.40;;;;;;;3.83;100.00;99848.72;4921439;28;20067;-78
2023/02/20 06:05:36;;;;;;;17.10;6.70;;;;;;;3.88;100.00;99882.16;4906954;29;20209;-78
2023/02/20 06:08:03;;;;;;;15.32;6.55;;;;;;;3.86;100.00;99894.81;4941502;29;20071;-78
2023/02/20 06:10:28;;;;;;;20.75;8.55;;;;;;;3.54;100.00;99864.63;4907235;28;20439;-77
2023/02/20 06:12:54;;;;;;;15.82;7.50;;;;;;;3.45;100.00;99866.28;4913535;29;20060;-76
2023/02/20 06:15:19;;;;;;;17.08;7.55;;;;;;;3.25;100.00;99855.47;4914184;29;20124;-78
2023/02/20 06:17:44;;;;;;;21.15;7.25;;;;;;;3.31;100.00;99877.31;4913415;28;20554;-76
2023/02/20 06:20:10;;;;;;;19.08;5.45;;;;;;;3.39;100.00;99897.06;4902962;29;20052;-78
2023/02/20 06:22:35;;;;;;;28.63;6.82;;;;;;;3.51;100.00;99900.50;4950067;28;20043;-76
2023/02/20 06:25:00;;;;;;;14.52;6.60;;;;;;;3.53;100.00;99889.69;4953920;28;20074;-76
2023/02/20 06:27:26;;;;;;;16.20;6.38;;;;;;;3.55;100.00;99896.59;4911309;28;20024;-78
2023/02/20 06:29:51;;;;;;;12.90;6.07;;;;;;;3.58;100.00;99895.50;4950299;28;20024;-78
2023/02/20 06:32:17;;;;;;;12.02;4.97;;;;;;;3.44;100.00;99886.00;4912937;29;20028;-77
2023/02/20 06:34:45;;;;;;;12.55;5.82;;;;;;;3.28;100.00;99873.06;4915263;29;20097;-77
2023/02/20 06:37:11;;;;;;;13.15;5.53;;;;;;;3.49;100.00;99906.00;4920613;28;20043;-77
2023/02/20 06:39:36;;;;;;;15.05;5.05;;;;;;;3.44;100.00;99899.38;4912077;28;20102;-77
2023/02/20 06:42:05;;;;;;;11.27;5.15;;;;;;;3.32;100.00;99890.53;4914872;28;20028;-78
2023/02/20 06:44:32;;;;;;;12.00;4.93;;;;;;;3.29;100.00;99890.81;4895939;28;20087;-77
2023/02/20 06:46:57;;;;;;;20.65;6.55;;;;;;;3.19;100.00;99888.06;4904667;28;20037;-77
2023/02/20 06:49:23;;;;;;;15.57;6.60;;;;;;;3.34;100.00;99893.09;4922806;28;20028;-77
2023/02/20 06:51:52;;;;;;;14.82;6.22;;;;;;;3.55;100.00;99910.00;4920233;29;20039;-77
2023/02/20 06:54:20;;;;;;;13.63;5.78;;;;;;;3.53;100.00;99876.31;4913315;29;20036;-77
2023/02/20 06:56:46;;;;;;;16.67;6.72;;;;;;;3.82;100.00;99897.88;4913973;28;20043;-77
2023/02/20 06:59:12;;;;;;;15.45;6.18;;;;;;;4.09;100.00;99895.47;4916719;28;20370;-76
2023/02/20 07:01:39;;;;;;;13.10;5.75;;;;;;;4.31;100.00;99902.47;4928101;29;20023;-77
2023/02/20 07:04:05;;;;;;;12.60;5.85;;;;;;;5.28;100.00;99896.38;4918501;29;20028;-77
2023/02/20 07:06:31;;;;;;;17.08;5.43;;;;;;;7.02;100.00;99880.47;4915919;29;20032;-77
2023/02/20 07:08:56;;;;;;;15.85;4.97;;;;;;;8.21;100.00;99818.81;4917833;28;20026;-76
2023/02/20 07:11:22;;;;;;;9.00;4.30;;;;;;;9.44;100.00;99863.03;4907315;28;20035;-77
2023/02/20 07:13:48;;;;;;;9.68;3.78;;;;;;;10.59;100.00;99881.66;4924897;29;20086;-77
2023/02/20 07:16:13;;;;;;;10.10;4.43;;;;;;;11.69;100.00;99873.22;4928659;28;20022;-73
2023/02/20 07:18:39;;;;;;;11.32;4.82;;;;;;;12.60;100.00;99875.75;4915697;28;20085;-73
2023/02/20 07:21:05;;;;;;;10.07;4.20;;;;;;;13.03;100.00;99881.28;4912272;28;20067;-77
2023/02/20 07:23:31;;;;;;;13.57;6.10;;;;;;;13.49;100.00;99876.34;4907334;28;20056;-75
2023/02/20 07:25:56;;;;;;;10.65;5.25;;;;;;;14.39;97.27;99866.47;4905631;28;20063;-74
2023/02/20 07:28:22;;;;;;;10.32;4.78;;;;;;;14.15;90.42;99867.81;4937195;28;20449;-75
2023/02/20 07:30:50;;;;;;;11.23;3.78;;;;;;;13.71;91.76;99852.66;4924591;28;20056;-75
2023/02/20 07:33:17;;;;;;;5.13;2.90;;;;;;;12.78;100.00;99878.06;4963927;28;20043;-78
2023/02/20 07:35:43;;;;;;;9.70;3.58;;;;;;;13.35;100.00;99872.63;4935557;28;20024;-75
2023/02/20 07:38:08;;;;;;;6.57;3.10;;;;;;;12.93;100.00;99877.00;4930757;29;20031;-76
2023/02/20 07:40:33;;;;;;;8.77;3.75;;;;;;;13.28;100.00;99857.28;4977477;28;20028;-76
2023/02/20 07:42:59;;;;;;;14.15;3.13;;;;;;;12.74;100.00;99866.75;4950106;28;20035;-76
2023/02/20 07:45:24;;;;;;;9.82;3.13;;;;;;;12.71;100.00;99862.56;4935594;29;20091;-77
2023/02/20 07:47:50;;;;;;;13.77;3.25;;;;;;;13.31;100.00;99870.53;4944737;28;20043;-72
2023/02/20 07:50:16;;;;;;;9.18;3.10;;;;;;;13.97;100.00;99862.03;4914513;29;20078;-73
2023/02/20 07:52:42;;;;;;;6.75;2.50;;;;;;;14.67;90.83;99866.41;4924938;28;20060;-72
2023/02/20 07:55:07;;;;;;;7.03;2.90;;;;;;;14.73;88.18;99847.56;4933446;28;20036;-72
2023/02/20 07:57:35;;;;;;;14.85;3.33;;;;;;;15.79;82.53;99855.88;4936188;29;20024;-77
2023/02/20 08:00:00;;;;;;;5.18;2.50;;;;;;;16.10;72.61;99857.09;4933126;29;20058;-77
2023/02/20 08:02:26;;;;;;;8.52;2.88;;;;;;;15.06;75.13;99861.25;4931163;29;20032;-79
2023/02/20 08:04:51;;;;;;;11.55;3.15;;;;;;;15.63;75.36;99854.38;4932256;28;20040;-72
2023/02/20 08:07:16;;;;;;;7.00;2.50;;;;;;;15.64;74.44;99847.03;4932675;28;20028;-72
2023/02/20 08:09:42;;;;;;;6.20;2.65;;;;;;;15.85;74.53;99855.06;4936407;29;20051;-78
2023/02/20 08:12:07;;;;;;;5.82;2.55;;;;;;;15.91;72.88;99847.91;4935612;28;20035;-72
2023/02/20 08:14:32;;;;;;;7.15;1.92;;;;;;;16.03;75.96;99854.38;4936086;29;20047;-77
2023/02/20 08:16:58;;;;;;;6.32;2.42;;;;;;;16.71;69.28;99839.44;4935797;28;20091;-75
2023/02/20 08:19:23;;;;;;;7.55;2.65;;;;;;;15.90;70.79;99847.06;4927308;28;20037;-76
2023/02/20 08:21:48;;;;;;;9.43;3.15;;;;;;;15.74;73.67;99845.59;4923715;28;20082;-75
2023/02/20 08:24:13;;;;;;;6.78;2.80;;;;;;;16.44;69.71;99845.84;4925818;28;20059;-75
2023/02/20 08:26:43;;;;;;;8.02;2.78;;;;;;;16.57;67.57;99849.59;4909230;29;20371;-77
2023/02/20 08:29:09;;;;;;;9.45;3.33;;;;;;;16.51;66.59;99853.19;4923954;28;20063;-75
2023/02/20 08:31:34;;;;;;;6.05;2.63;;;;;;;16.42;66.16;99828.81;4906503;28;20021;-76
2023/02/20 08:33:59;;;;;;;7.97;2.58;;;;;;;17.31;63.35;99838.00;4929418;28;20036;-77
2023/02/20 08:36:25;;;;;;;10.90;3.30;;;;;;;17.21;62.28;99837.69;4911825;29;20032;-80
2023/02/20 08:38:50;;;;;;;6.68;2.90;;;;;;;18.81;57.95;99830.59;4916008;29;20028;-77
2023/02/20 08:41:15;;;;;;;7.68;3.00;;;;;;;18.95;58.17;99825.78;4914318;28;20032;-77
2023/02/20 08:43:42;;;;;;;6.57;2.20;;;;;;;19.06;55.09;99833.19;4912744;28;20111;-76
2023/02/20 08:46:08;;;;;;;6.22;2.55;;;;;;;19.60;55.28;99834.03;4917588;29;20023;-77
2023/02/20 08:48:34;;;;;;;7.95;2.83;;;;;;;20.58;52.28;99828.84;4913930;29;20034;-78
2023/02/20 08:50:59;;;;;;;6.63;2.20;;;;;;;22.05;48.88;99829.75;4911403;29;20016;-79
2023/02/20 08:53:25;;;;;;;6.53;2.00;;;;;;;21.84;47.91;99819.53;4916734;28;20505;-79
2023/02/20 08:55:50;;;;;;;7.88;2.28;;;;;;;21.73;46.55;99796.50;4915673;29;20040;-79
2023/02/20 08:58:23;;;;;;;6.25;2.45;;;;;;;22.34;46.39;99806.75;4920054;28;20051;-78
2023/02/20 09:00:49;;;;;;;5.35;2.10;;;;;;;21.12;46.93;99823.84;4966692;28;20044;-78
2023/02/20 09:03:15;;;;;;;6.03;2.00;;;;;;;21.26;47.00;99801.50;4913459;29;20059;-79
2023/02/20 09:05:41;;;;;;;8.13;2.60;;;;;;;22.11;45.56;99816.88;4908564;29;20102;-77
2023/02/20 09:08:06;;;;;;;6.65;2.10;;;;;;;21.29;46.38;99810.09;4912004;28;20028;-77
2023/02/20 09:10:32;;;;;;;4.55;2.00;;;;;;;22.96;45.40;99814.66;4914938;29;20057;-77
2023/02/20 09:12:57;;;;;;;5.07;2.00;;;;;;;23.75;41.64;99822.28;4920147;29;20119;-76
2023/02/20 09:15:23;;;;;;;5.47;2.08;;;;;;;23.88;42.45;99809.94;4917251;29;20073;-78
2023/02/20 09:17:50;;;;;;;9.02;2.38;;;;;;;25.17;41.58;99816.88;4924938;28;20036;-79
2023/02/20 09:20:16;;;;;;;7.50;2.08;;;;;;;25.04;39.54;99810.72;4914554;29;20025;-76
2023/02/20 09:22:42;;;;;;;6.00;2.20;;;;;;;23.22;43.05;99795.59;4917466;29;20020;-76
2023/02/20 09:25:10;;;;;;;6.28;2.40;;;;;;;22.79;43.00;99789.88;4906625;28;20229;-78
2023/02/20 09:27:37;;;;;;;4.63;2.17;;;;;;;24.49;41.37;99787.34;4908241;28;20380;-77
2023/02/20 09:30:03;;;;;;;6.45;2.42;;;;;;;23.67;42.27;99783.25;4910246;28;20028;-76
2023/02/20 09:32:28;;;;;;;6.30;2.00;;;;;;;23.28;42.39;99786.25;4904536;28;20090;-80
2023/02/20 09:34:54;;;;;;;4.40;1.50;;;;;;;22.40;43.45;99779.00;4905215;28;20060;-75
2023/02/20 09:37:19;;;;;;;5.68;1.90;;;;;;;22.09;43.65;99784.09;4913317;28;20110;-76
2023/02/20 09:39:44;;;;;;;7.20;1.88;;;;;;;22.99;44.04;99783.78;4924822;29;20032;-76
2023/02/20 09:42:33;;;;;;;5.50;1.58;;;;;;;24.52;41.28;99792.31;4907323;28;20034;-76
2023/02/20 09:45:01;;;;;;;4.63;1.52;;;;;;;21.55;46.58;99788.50;4911994;28;20039;-76
2023/02/20 09:47:45;;;;;;;4.70;1.70;;;;;;;19.37;49.45;99790.91;4911212;28;20024;-75
2023/02/20 09:50:17;;;;;;;8.30;1.95;;;;;;;19.44;48.67;99791.66;4908223;28;20024;-75
2023/02/20 09:52:51;;;;;;;5.90;1.63;;;;;;;19.83;48.33;99782.97;4913064;28;20044;-76
2023/02/20 09:55:20;;;;;;;9.35;1.88;;;;;;;19.55;48.91;99781.75;4913790;28;20082;-75
2023/02/20 09:57:48;;;;;;;4.78;1.63;;;;;;;20.92;48.15;99773.94;4909076;28;20032;-75
2023/02/20 10:00:29;;;;;;;9.88;1.83;;;;;;;20.79;47.12;99767.66;4920033;29;20024;-76
2023/02/20 10:03:14;;;;;;;8.80;2.17;;;;;;;20.25;47.96;99769.88;4914356;28;20032;-76
2023/02/20 10:05:41;;;;;;;5.82;1.50;;;;;;;21.22;47.64;99760.72;4910642;28;20155;-76
2023/02/20 10:08:10;;;;;;;6.00;1.90;;;;;;;23.50;44.16;99766.81;4918316;28;20035;-76
2023/02/20 10:10:39;;;;;;;6.85;1.60;;;;;;;22.55;42.52;99747.97;4913643;28;20474;-77
2023/02/20 10:13:22;;;;;;;6.45;1.60;;;;;;;24.86;41.43;99765.03;4911637;28;20561;-77
2023/02/20 10:16:11;;;;;;;6.45;1.63;;;;;;;23.02;44.03;99761.19;4917900;29;20035;-77
2023/02/20 10:18:56;;;;;;;5.68;1.50;;;;;;;27.38;37.89;99748.41;4902712;29;20074;-77
2023/02/20 10:21:53;;;;;;;4.60;1.40;;;;;;;29.13;35.40;99740.44;4896553;29;20036;-77
2023/02/20 10:24:40;;;;;;;6.50;1.98;;;;;;;28.83;35.85;99742.56;4955211;28;20039;-77
2023/02/20 10:27:24;;;;;;;3.50;1.40;;;;;;;30.23;33.74;99736.22;4922027;28;20127;-76
2023/02/20 10:29:49;;;;;;;5.68;1.45;;;;;;;30.03;32.75;99735.50;4907264;28;20032;-75
2023/02/20 10:32:28;;;;;;;6.00;1.70;;;;;;;27.54;35.44;99738.84;4958870;28;20396;-76
2023/02/20 10:35:20;;;;;;;4.95;1.70;;;;;;;25.18;36.79;99747.38;4961549;28;20098;-76
2023/02/20 10:37:50;;;;;;;6.07;1.55;;;;;;;25.34;38.07;99737.13;4912634;29;20032;-75
2023/02/20 10:40:23;;;;;;;5.32;1.52;;;;;;;22.92;39.85;99745.34;4899810;29;20036;-76
2023/02/20 10:43:10;;;;;;;3.80;1.40;;;;;;;25.18;38.23;99738.22;4907006;29;20058;-76
2023/02/20 10:45:56;;;;;;;3.53;1.40;;;;;;;27.07;36.27;99730.03;4934556;28;20380;-75
2023/02/20 10:48:27;;;;;;;7.07;1.73;;;;;;;28.51;34.52;99734.16;4912286;28;20082;-78
2023/02/20 10:50:52;;;;;;;5.97;1.30;;;;;;;27.69;35.18;99726.72;4927940;28;20127;-76
2023/02/20 10:53:47;;;;;;;5.83;1.50;;;;;;;27.89;34.12;99728.47;4903063;28;20051;-76
2023/02/20 10:56:26;;;;;;;3.78;1.23;;;;;;;29.76;32.40;99715.94;4909670;28;20296;-76
2023/02/20 10:59:53;;;;;;;5.95;1.35;;;;;;;29.15;32.28;99706.72;4901535;29;20062;-76
2023/02/20 11:02:21;;;;;;;5.45;1.15;;;;;;;28.35;32.40;99705.66;4890281;29;20066;-77
2023/02/20 11:04:50;;;;;;;;;;;;;;;27.50;33.18;99701.63;4919747;28;20032;-75
2023/02/20 11:07:17;;;;;;;;;;;;;;;27.66;33.16;99711.44;4935569;29;19969;-76
2023/02/20 11:09:42;;;;;;;3.50;1.00;;;;;;;27.02;33.61;99688.44;4918435;29;19942;-76
2023/02/20 11:12:22;;;;;;;3.72;1.00;;;;;;;27.18;32.29;99683.59;4916748;28;20021;-77
2023/02/20 11:14:51;;;;;;;3.45;0.98;;;;;;;25.45;34.08;99693.59;4924717;29;20028;-76
2023/02/20 11:17:24;;;;;;;4.35;1.23;;;;;;;27.25;32.73;99680.50;4922140;29;20076;-76
2023/02/20 11:19:52;;;;;;;4.13;1.20;;;;;;;28.03;32.07;99681.31;4921752;29;20506;-75
2023/02/20 11:22:38;;;;;;;2.90;0.73;;;;;;;28.90;31.21;99675.34;4927018;28;20108;-75
2023/02/20 11:25:15;;;;;;;3.15;0.80;;;;;;;26.66;33.06;99663.69;4918095;28;20032;-75
2023/02/20 11:27:41;;;;;;;3.60;0.82;;;;;;;28.17;30.90;99662.78;4919135;29;20074;-76
2023/02/20 11:30:32;;;;;;;2.40;0.80;;;;;;;27.72;32.12;99662.19;4916264;28;20087;-76
2023/02/20 11:33:05;;;;;;;3.95;0.80;;;;;;;28.34;31.42;99665.03;4902580;29;20816;-75
2023/02/20 11:35:40;;;;;;;3.65;0.90;;;;;;;25.36;33.60;99663.72;4911012;29;20036;-75
2023/02/20 11:38:17;;;;;;;2.67;0.68;;;;;;;26.71;32.10;99657.28;4927124;29;20032;-75
2023/02/20 11:41:01;;;;;;;2.30;0.70;;;;;;;26.96;32.64;99647.09;4950638;28;20027;-76
2023/02/20 11:43:40;;;;;;;3.67;0.85;;;;;;;26.65;32.51;99636.25;4919793;28;20023;-76
2023/02/20 11:46:12;;;;;;;3.85;0.98;;;;;;;28.25;32.02;99639.00;4920279;28;20028;-75
2023/02/20 11:48:56;;;;;;;4.70;1.13;;;;;;;28.92;30.75;99617.34;4908879;29;20064;-76
2023/02/20 11:51:30;;;;;;;2.63;0.93;;;;;;;28.63;31.23;99623.13;4915230;28;20028;-76
2023/02/20 11:54:34;;;;;;;4.40;0.70;;;;;;;29.26;30.79;99610.63;4928193;28;20036;-75
2023/02/20 11:57:20;;;;;;;4.78;1.13;;;;;;;26.61;32.67;99618.50;4917008;29;20095;-76
2023/02/20 11:59:47;;;;;;;2.70;0.85;;;;;;;28.06;31.52;99609.22;4908001;29;20067;-76
2023/02/20 12:02:18;;;;;;;3.63;0.70;;;;;;;29.16;29.98;99594.97;4897839;28;20056;-76